Time,TemperatureF,DewpointF,PressureIn,WindDirection,WindDirectionDegrees,WindSpeedMPH,WindSpeedGustMPH,Humidity,HourlyPrecipIn,Conditions,Clouds,dailyrainin,SolarRadiationWatts/m^2,SoftwareType,DateUTC
2013-04-07 00:00:00,55.3,20.1,29.87,ESE,116,4.0,9.0,25,0.00,,---,0.00,0.00,VWS V14.01,2013-04-07 04:00:00,
2013-04-07 00:01:00,55.3,20.1,29.87,SSE,155,1.0,5.0,25,0.00,,---,0.00,0.00,VWS V14.01,2013-04-07 04:01:00,
2013-04-07 00:06:00,55.3,20.1,29.87,SE,137,3.0,9.0,25,0.00,,---,0.00,0.00,VWS V14.01,2013-04-07 04:06:00,
2013-04-07 00:11:00,55.4,20.2,29.87,SE,137,0.0,9.0,25,0.00,,---,0.00,0.00,VWS V14.01,2013-04-07 04:11:00,
2013-04-07 00:16:00,55.3,21.0,29.86,SE,124,1.0,10.0,26,0.00,,---,0.00,0.00,VWS V14.01,2013-04-07 04:16:00,
2013-04-07 00:22:00,55.4,20.2,29.86,SSE,147,2.0,10.0,25,0.00,,---,0.00,0.00,VWS V14.01,2013-04-07 04:22:00,
2013-04-07 00:27:00,55.4,20.2,29.86,ESE,122,1.0,10.0,25,0.00,,---,0.00,0.00,VWS V14.01,2013-04-07 04:27:00,
2013-04-07 00:30:00,55.4,20.2,29.86,ESE,115,2.0,10.0,25,0.00,,---,0.00,0.00,VWS V14.01,2013-04-07 04:30:00,
2013-04-07 00:32:00,55.4,20.2,29.86,ESE,113,3.0,6.0,25,0.00,,---,0.00,0.00,VWS V14.01,2013-04-07 04:32:00,
2013-04-07 00:37:00,55.5,20.3,29.86,South,169,3.0,6.0,25,0.00,,---,0.00,0.00,VWS V14.01,2013-04-07 04:37:00,
2013-04-07 00:42:00,55.5,21.2,29.86,SSE,164,0.0,7.0,26,0.00,,---,0.00,0.00,VWS V14.01,2013-04-07 04:42:00,
2013-04-07 00:47:00,55.4,21.1,29.86,SSE,151,5.0,13.0,26,0.00,,---,0.00,0.00,VWS V14.01,2013-04-07 04:47:00,
2013-04-07 00:52:00,55.4,21.1,29.86,ESE,104,5.0,13.0,26,0.00,,---,0.00,0.00,VWS V14.01,2013-04-07 04:52:00,
2013-04-07 00:57:00,55.3,21.0,29.86,SE,134,2.0,13.0,26,0.00,,---,0.00,0.00,VWS V14.01,2013-04-07 04:57:00,
2013-04-07 01:00:00,55.3,21.0,29.86,SSE,157,1.0,13.0,26,0.00,,---,0.00,0.00,VWS V14.01,2013-04-07 05:00:00,
2013-04-07 01:02:00,55.3,21.0,29.85,SE,142,6.0,10.0,26,0.00,,---,0.00,0.00,VWS V14.01,2013-04-07 05:02:00,
2013-04-07 01:07:00,55.4,21.1,29.85,SSE,165,2.0,15.0,26,0.00,,---,0.00,0.00,VWS V14.01,2013-04-07 05:07:00,
2013-04-07 01:12:00,55.4,22.0,29.85,SE,132,5.0,15.0,27,0.00,,---,0.00,0.00,VWS V14.01,2013-04-07 05:12:00,
2013-04-07 01:17:00,55.4,22.0,29.85,SSE,164,0.0,15.0,27,0.00,,---,0.00,0.00,VWS V14.01,2013-04-07 05:17:00,
2013-04-07 01:22:00,55.4,22.0,29.85,SSE,165,5.0,15.0,27,0.00,,---,0.00,0.00,VWS V14.01,2013-04-07 05:22:00,
2013-04-07 01:27:00,55.4,22.9,29.85,ESE,116,8.0,15.0,28,0.00,,---,0.00,0.00,VWS V14.01,2013-04-07 05:27:00,
2013-04-07 01:30:00,55.4,22.0,29.85,SSE,168,5.0,15.0,27,0.00,,---,0.00,0.00,VWS V14.01,2013-04-07 05:30:00,
2013-04-07 01:33:00,55.4,22.9,29.84,SSE,148,4.0,12.0,28,0.00,,---,0.00,0.00,VWS V14.01,2013-04-07 05:33:00,
2013-04-07 01:38:00,55.3,22.8,29.85,South,183,4.0,12.0,28,0.00,,---,0.00,0.00,VWS V14.01,2013-04-07 05:38:00,
2013-04-07 01:43:00,55.4,23.7,29.84,SSE,153,6.0,12.0,29,0.00,,---,0.00,0.00,VWS V14.01,2013-04-07 05:43:00,
2013-04-07 01:48:00,55.5,23.8,29.84,SE,140,3.0,13.0,29,0.00,,---,0.00,0.00,VWS V14.01,2013-04-07 05:48:00,
2013-04-07 01:53:00,55.7,24.8,29.84,SSE,167,6.0,13.0,30,0.00,,---,0.00,0.00,VWS V14.01,2013-04-07 05:53:00,
2013-04-07 01:58:00,55.9,25.7,29.83,East,92,3.0,13.0,31,0.00,,---,0.00,0.00,VWS V14.01,2013-04-07 05:58:00,
2013-04-07 02:00:00,55.9,24.9,29.83,SSE,157,3.0,13.0,30,0.00,,---,0.00,0.00,VWS V14.01,2013-04-07 06:00:00,
2013-04-07 02:03:00,56.0,25.8,29.83,South,171,7.0,10.0,31,0.00,,---,0.00,0.00,VWS V14.01,2013-04-07 06:03:00,
2013-04-07 02:08:00,56.2,26.0,29.83,South,187,5.0,12.0,31,0.00,,---,0.00,0.00,VWS V14.01,2013-04-07 06:08:00,
2013-04-07 02:13:00,56.3,26.8,29.83,SSE,148,11.0,12.0,32,0.00,,---,0.00,0.00,VWS V14.01,2013-04-07 06:13:00,
2013-04-07 02:18:00,56.5,27.0,29.83,South,182,6.0,13.0,32,0.00,,---,0.00,0.00,VWS V14.01,2013-04-07 06:18:00,
2013-04-07 02:23:00,56.6,27.9,29.83,South,177,2.0,13.0,33,0.00,,---,0.00,0.00,VWS V14.01,2013-04-07 06:23:00,
2013-04-07 02:28:00,56.7,27.9,29.83,SSW,194,7.0,13.0,33,0.00,,---,0.00,0.00,VWS V14.01,2013-04-07 06:28:00,
2013-04-07 02:30:00,56.8,28.8,29.83,South,175,4.0,13.0,34,0.00,,---,0.00,0.00,VWS V14.01,2013-04-07 06:30:00,
2013-04-07 02:33:00,56.9,28.8,29.83,South,190,10.0,14.0,34,0.00,,---,0.00,0.00,VWS V14.01,2013-04-07 06:33:00,
2013-04-07 02:38:00,57.1,29.7,29.83,SSE,165,3.0,14.0,35,0.00,,---,0.00,0.00,VWS V14.01,2013-04-07 06:38:00,
2013-04-07 02:43:00,57.3,29.9,29.82,South,191,9.0,16.0,35,0.00,,---,0.00,0.00,VWS V14.01,2013-04-07 06:43:00,
2013-04-07 02:48:00,57.5,30.8,29.82,South,180,4.0,18.0,36,0.00,,---,0.00,0.00,VWS V14.01,2013-04-07 06:48:00,
2013-04-07 02:53:00,57.6,30.9,29.82,SSW,194,10.0,18.0,36,0.00,,---,0.00,0.00,VWS V14.01,2013-04-07 06:53:00,
2013-04-07 02:58:00,57.7,31.0,29.82,South,184,6.0,18.0,36,0.00,,---,0.00,0.00,VWS V14.01,2013-04-07 06:58:00,
2013-04-07 03:00:00,57.7,31.6,29.82,SSE,167,10.0,18.0,37,0.00,,---,0.00,0.00,VWS V14.01,2013-04-07 07:00:00,
2013-04-07 03:04:00,57.8,31.7,29.82,SSW,196,8.0,12.0,37,0.00,,---,0.00,0.00,VWS V14.01,2013-04-07 07:04:00,
2013-04-07 03:09:00,57.9,31.8,29.82,South,181,6.0,18.0,37,0.00,,---,0.00,0.00,VWS V14.01,2013-04-07 07:09:00,
2013-04-07 03:14:00,58.0,31.9,29.81,SSW,207,9.0,18.0,37,0.00,,---,0.00,0.00,VWS V14.01,2013-04-07 07:14:00,
2013-04-07 03:19:00,58.1,32.7,29.81,South,187,3.0,18.0,38,0.00,,---,0.00,0.00,VWS V14.01,2013-04-07 07:19:00,
2013-04-07 03:24:00,58.1,32.7,29.81,SSE,167,6.0,18.0,38,0.00,,---,0.00,0.00,VWS V14.01,2013-04-07 07:24:00,
2013-04-07 03:29:00,58.2,32.7,29.81,SSW,192,9.0,18.0,38,0.00,,---,0.00,0.00,VWS V14.01,2013-04-07 07:29:00,
2013-04-07 03:30:00,58.2,33.4,29.81,SE,131,3.0,18.0,39,0.00,,---,0.00,0.00,VWS V14.01,2013-04-07 07:30:00,
2013-04-07 03:34:00,58.2,33.4,29.81,SE,139,7.0,19.0,39,0.00,,---,0.00,0.00,VWS V14.01,2013-04-07 07:34:00,
2013-04-07 03:39:00,58.2,33.4,29.81,South,186,5.0,19.0,39,0.00,,---,0.00,0.00,VWS V14.01,2013-04-07 07:39:00,
2013-04-07 03:44:00,58.1,33.3,29.81,South,180,3.0,19.0,39,0.00,,---,0.00,0.00,VWS V14.01,2013-04-07 07:44:00,
2013-04-07 03:49:00,58.0,33.8,29.81,SSE,149,6.0,19.0,40,0.00,,---,0.00,0.00,VWS V14.01,2013-04-07 07:49:00,
2013-04-07 03:54:00,58.0,33.8,29.81,SSE,155,3.0,19.0,40,0.00,,---,0.00,0.00,VWS V14.01,2013-04-07 07:54:00,
2013-04-07 03:59:00,57.9,33.8,29.81,South,174,10.0,19.0,40,0.00,,---,0.00,0.00,VWS V14.01,2013-04-07 07:59:00,
2013-04-07 04:00:00,57.9,33.8,29.81,SSW,203,4.0,19.0,40,0.00,,---,0.00,0.00,VWS V14.01,2013-04-07 08:00:00,
2013-04-07 04:04:00,57.8,34.3,29.81,SE,133,6.0,16.0,41,0.00,,---,0.00,0.00,VWS V14.01,2013-04-07 08:04:00,
2013-04-07 04:09:00,57.7,34.2,29.81,South,172,6.0,16.0,41,0.00,,---,0.00,0.00,VWS V14.01,2013-04-07 08:09:00,
2013-04-07 04:14:00,57.6,34.7,29.81,SSE,161,5.0,16.0,42,0.00,,---,0.00,0.00,VWS V14.01,2013-04-07 08:14:00,
2013-04-07 04:19:00,57.5,34.6,29.80,South,171,3.0,16.0,42,0.00,,---,0.00,0.00,VWS V14.01,2013-04-07 08:19:00,
2013-04-07 04:24:00,57.5,34.6,29.80,South,183,1.0,16.0,42,0.00,,---,0.00,0.00,VWS V14.01,2013-04-07 08:24:00,
2013-04-07 04:29:00,57.5,35.2,29.80,South,178,7.0,16.0,43,0.00,,---,0.00,0.00,VWS V14.01,2013-04-07 08:29:00,
2013-04-07 04:30:00,57.4,35.1,29.80,South,176,6.0,16.0,43,0.00,,---,0.00,0.00,VWS V14.01,2013-04-07 08:30:00,
2013-04-07 04:34:00,57.4,35.1,29.80,SSE,153,8.0,9.0,43,0.00,,---,0.00,0.00,VWS V14.01,2013-04-07 08:34:00,
2013-04-07 04:40:00,57.3,35.6,29.80,SSW,199,6.0,13.0,44,0.00,,---,0.00,0.00,VWS V14.01,2013-04-07 08:40:00,
2013-04-07 04:45:00,57.1,35.4,29.80,SSE,167,3.0,13.0,44,0.00,,---,0.00,0.00,VWS V14.01,2013-04-07 08:45:00,
2013-04-07 04:50:00,57.0,35.9,29.80,South,178,5.0,13.0,45,0.00,,---,0.00,0.00,VWS V14.01,2013-04-07 08:50:00,
2013-04-07 04:55:00,56.9,35.8,29.80,SSW,202,4.0,14.0,45,0.00,,---,0.00,0.00,VWS V14.01,2013-04-07 08:55:00,
2013-04-07 05:00:00,56.9,36.3,29.80,SSW,194,6.0,14.0,46,0.00,,---,0.00,0.00,VWS V14.01,2013-04-07 09:00:00,
2013-04-07 05:05:00,56.9,36.3,29.80,South,179,3.0,10.0,46,0.00,,---,0.00,0.00,VWS V14.01,2013-04-07 09:05:00,
2013-04-07 05:10:00,56.9,36.3,29.80,South,178,0.0,10.0,46,0.00,,---,0.00,0.00,VWS V14.01,2013-04-07 09:10:00,
2013-04-07 05:15:00,56.8,36.8,29.79,SSW,192,6.0,12.0,47,0.00,,---,0.00,0.00,VWS V14.01,2013-04-07 09:15:00,
2013-04-07 05:20:00,56.8,36.8,29.79,SSE,159,5.0,13.0,47,0.00,,---,0.00,0.00,VWS V14.01,2013-04-07 09:20:00,
2013-04-07 05:25:00,56.9,36.9,29.79,SSE,155,1.0,13.0,47,0.00,,---,0.00,0.00,VWS V14.01,2013-04-07 09:25:00,
2013-04-07 05:30:00,56.9,36.9,29.79,South,188,5.0,6.0,47,0.00,,---,0.00,0.00,VWS V14.01,2013-04-07 09:30:00,
2013-04-07 05:35:00,56.9,36.9,29.79,South,184,4.0,10.0,47,0.00,,---,0.00,0.00,VWS V14.01,2013-04-07 09:35:00,
2013-04-07 05:40:00,56.8,36.8,29.79,South,181,3.0,11.0,47,0.00,,---,0.00,0.00,VWS V14.01,2013-04-07 09:40:00,
2013-04-07 05:45:00,56.8,37.3,29.79,South,178,4.0,12.0,48,0.00,,---,0.00,0.00,VWS V14.01,2013-04-07 09:45:00,
2013-04-07 05:51:00,56.7,37.2,29.79,SSW,192,2.0,16.0,48,0.00,,---,0.00,0.00,VWS V14.01,2013-04-07 09:51:00,
2013-04-07 05:56:00,56.6,37.7,29.79,SW,219,14.0,16.0,49,0.00,,---,0.00,0.00,VWS V14.01,2013-04-07 09:56:00,
2013-04-07 06:00:00,56.6,37.7,29.79,South,179,4.0,17.0,49,0.00,,---,0.00,0.00,VWS V14.01,2013-04-07 10:00:00,
2013-04-07 06:01:00,56.6,37.7,29.79,SSW,205,4.0,10.0,49,0.00,,---,0.00,0.00,VWS V14.01,2013-04-07 10:01:00,
2013-04-07 06:06:00,56.6,37.7,29.79,SW,217,1.0,10.0,49,0.00,,---,0.00,0.00,VWS V14.01,2013-04-07 10:06:00,
2013-04-07 06:12:00,56.6,37.7,29.79,South,188,5.0,11.0,49,0.00,,---,0.00,0.00,VWS V14.01,2013-04-07 10:12:00,
2013-04-07 06:17:00,56.5,37.6,29.79,SSE,166,1.0,11.0,49,0.00,,---,0.00,0.00,VWS V14.01,2013-04-07 10:17:00,
2013-04-07 06:22:00,56.4,38.0,29.79,SSW,202,9.0,14.0,50,0.00,,---,0.00,0.00,VWS V14.01,2013-04-07 10:22:00,
2013-04-07 06:27:00,56.4,38.0,29.80,South,190,4.0,15.0,50,0.00,,---,0.00,0.00,VWS V14.01,2013-04-07 10:27:00,
2013-04-07 06:30:00,56.3,37.9,29.79,South,183,5.0,15.0,50,0.00,,---,0.00,0.00,VWS V14.01,2013-04-07 10:30:00,
2013-04-07 06:32:00,56.3,37.9,29.79,South,173,1.0,9.0,50,0.00,,---,0.00,0.00,VWS V14.01,2013-04-07 10:32:00,
2013-04-07 06:37:00,56.2,37.8,29.80,SSE,150,13.0,13.0,50,0.00,,---,0.00,0.00,VWS V14.01,2013-04-07 10:37:00,
2013-04-07 06:42:00,56.3,38.4,29.80,SW,218,6.0,14.0,51,0.00,,---,0.00,0.00,VWS V14.01,2013-04-07 10:42:00,
2013-04-07 06:47:00,56.4,38.5,29.80,South,170,11.0,14.0,51,0.00,,---,0.00,0.00,VWS V14.01,2013-04-07 10:47:00,
2013-04-07 06:52:00,56.6,38.2,29.80,South,175,4.0,14.0,50,0.00,,---,0.00,0.00,VWS V14.01,2013-04-07 10:52:00,
2013-04-07 06:57:00,56.7,38.3,29.80,South,184,10.0,14.0,50,0.00,,---,0.00,0.00,VWS V14.01,2013-04-07 10:57:00,
2013-04-07 07:00:00,56.8,38.4,29.80,SSW,204,9.0,16.0,50,0.00,,---,0.00,0.00,VWS V14.01,2013-04-07 11:00:00,
2013-04-07 07:02:00,56.8,38.4,29.80,SSW,193,3.0,14.0,50,0.00,,---,0.00,0.00,VWS V14.01,2013-04-07 11:02:00,
2013-04-07 07:07:00,56.9,38.5,29.80,South,178,7.0,15.0,50,0.00,,---,0.00,0.00,VWS V14.01,2013-04-07 11:07:00,
2013-04-07 07:12:00,56.9,39.0,29.80,SSW,205,4.0,15.0,51,0.00,,---,0.00,0.00,VWS V14.01,2013-04-07 11:12:00,
2013-04-07 07:17:00,57.0,39.1,29.80,SSW,196,11.0,15.0,51,0.00,,---,0.00,5.00,VWS V14.01,2013-04-07 11:17:00,
2013-04-07 07:22:00,57.0,39.1,29.80,South,169,3.0,15.0,51,0.00,,---,0.00,9.00,VWS V14.01,2013-04-07 11:22:00,
2013-04-07 07:27:00,57.1,39.2,29.80,SSE,159,4.0,15.0,51,0.00,,---,0.00,16.00,VWS V14.01,2013-04-07 11:27:00,
2013-04-07 07:30:00,57.1,39.2,29.80,SSW,200,8.0,15.0,51,0.00,,---,0.00,23.00,VWS V14.01,2013-04-07 11:30:00,
2013-04-07 07:32:00,57.1,39.2,29.80,South,186,7.0,12.0,51,0.00,,---,0.00,25.00,VWS V14.01,2013-04-07 11:32:00,
2013-04-07 07:37:00,57.2,39.2,29.80,SW,228,4.0,15.0,51,0.00,,---,0.00,28.00,VWS V14.01,2013-04-07 11:37:00,
2013-04-07 07:42:00,57.2,39.2,29.81,South,172,6.0,15.0,51,0.00,,---,0.00,35.00,VWS V14.01,2013-04-07 11:42:00,
2013-04-07 07:47:00,57.3,39.3,29.81,SSW,192,9.0,15.0,51,0.00,,---,0.00,46.00,VWS V14.01,2013-04-07 11:47:00,
2013-04-07 07:52:00,57.3,39.3,29.81,SSW,194,5.0,17.0,51,0.00,,---,0.00,54.00,VWS V14.01,2013-04-07 11:52:00,
2013-04-07 07:58:00,57.3,39.3,29.81,SSW,208,6.0,17.0,51,0.00,,---,0.00,58.00,VWS V14.01,2013-04-07 11:58:00,
2013-04-07 08:00:00,57.4,39.4,29.81,SW,217,5.0,17.0,51,0.00,,---,0.00,62.00,VWS V14.01,2013-04-07 12:00:00,
2013-04-07 08:03:00,57.4,39.4,29.82,SW,223,6.0,12.0,51,0.00,,---,0.00,67.00,VWS V14.01,2013-04-07 12:03:00,
2013-04-07 08:08:00,57.4,39.4,29.82,SW,217,10.0,15.0,51,0.00,,---,0.00,72.00,VWS V14.01,2013-04-07 12:08:00,
2013-04-07 08:13:00,57.5,40.0,29.81,SSW,211,6.0,15.0,52,0.00,,---,0.00,74.00,VWS V14.01,2013-04-07 12:13:00,
2013-04-07 08:18:00,57.6,40.1,29.82,SSW,196,3.0,15.0,52,0.00,,---,0.00,49.00,VWS V14.01,2013-04-07 12:18:00,
2013-04-07 08:23:00,57.7,40.2,29.82,South,184,10.0,15.0,52,0.00,,---,0.00,33.00,VWS V14.01,2013-04-07 12:23:00,
2013-04-07 08:28:00,57.7,40.2,29.82,South,184,5.0,15.0,52,0.00,,---,0.00,39.00,VWS V14.01,2013-04-07 12:28:00,
2013-04-07 08:30:00,57.8,40.3,29.82,South,180,7.0,15.0,52,0.00,,---,0.00,54.00,VWS V14.01,2013-04-07 12:30:00,
2013-04-07 08:33:00,57.8,40.3,29.82,SW,223,5.0,16.0,52,0.00,,---,0.00,67.00,VWS V14.01,2013-04-07 12:33:00,
2013-04-07 08:38:00,57.8,40.3,29.82,SSW,207,4.0,16.0,52,0.00,,---,0.00,72.00,VWS V14.01,2013-04-07 12:38:00,
2013-04-07 08:43:00,57.9,40.4,29.82,South,188,9.0,16.0,52,0.00,,---,0.00,65.00,VWS V14.01,2013-04-07 12:43:00,
2013-04-07 08:48:00,58.1,40.6,29.82,SSW,196,10.0,16.0,52,0.00,,---,0.00,81.00,VWS V14.01,2013-04-07 12:48:00,
2013-04-07 08:53:00,58.2,40.7,29.82,SW,216,6.0,16.0,52,0.00,,---,0.00,83.00,VWS V14.01,2013-04-07 12:53:00,
2013-04-07 08:58:00,58.4,40.9,29.82,South,178,6.0,18.0,52,0.00,,---,0.00,83.00,VWS V14.01,2013-04-07 12:58:00,
2013-04-07 09:00:00,58.4,40.9,29.82,SSW,207,7.0,18.0,52,0.00,,---,0.00,95.00,VWS V14.01,2013-04-07 13:00:00,
2013-04-07 09:03:00,58.5,41.0,29.82,SW,214,11.0,14.0,52,0.00,,---,0.00,118.00,VWS V14.01,2013-04-07 13:03:00,
2013-04-07 09:08:00,58.6,41.0,29.82,South,178,12.0,15.0,52,0.00,,---,0.00,123.00,VWS V14.01,2013-04-07 13:08:00,
2013-04-07 09:13:00,58.8,41.2,29.82,SW,227,4.0,15.0,52,0.00,,---,0.00,155.00,VWS V14.01,2013-04-07 13:13:00,
2013-04-07 09:18:00,59.0,41.4,29.82,South,182,5.0,15.0,52,0.00,,---,0.00,207.00,VWS V14.01,2013-04-07 13:18:00,
2013-04-07 09:23:00,59.2,41.6,29.82,SW,230,9.0,15.0,52,0.00,,---,0.00,193.00,VWS V14.01,2013-04-07 13:23:00,
2013-04-07 09:29:00,59.5,42.4,29.82,SW,219,10.0,15.0,53,0.00,,---,0.00,192.00,VWS V14.01,2013-04-07 13:29:00,
2013-04-07 09:30:00,59.5,41.9,29.82,SW,225,6.0,15.0,52,0.00,,---,0.00,178.00,VWS V14.01,2013-04-07 13:30:00,
2013-04-07 09:34:00,59.7,42.1,29.82,WSW,252,12.0,19.0,52,0.00,,---,0.00,181.00,VWS V14.01,2013-04-07 13:34:00,
2013-04-07 09:39:00,59.9,42.2,29.82,SSW,207,10.0,19.0,52,0.00,,---,0.00,234.00,VWS V14.01,2013-04-07 13:39:00,
2013-04-07 09:44:00,60.2,42.5,29.82,SW,233,11.0,19.0,52,0.00,,---,0.00,248.00,VWS V14.01,2013-04-07 13:44:00,
2013-04-07 09:49:00,60.6,42.9,29.82,SW,214,9.0,19.0,52,0.00,,---,0.00,279.00,VWS V14.01,2013-04-07 13:49:00,
2013-04-07 09:55:00,60.9,43.2,29.82,SW,219,9.0,19.0,52,0.00,,---,0.00,98.00,VWS V14.01,2013-04-07 13:55:00,
2013-04-07 10:00:00,61.2,43.5,29.82,SW,219,7.0,19.0,52,0.00,,---,0.00,67.00,VWS V14.01,2013-04-07 14:00:00,
2013-04-07 10:05:00,61.3,43.0,29.82,WSW,252,17.0,24.0,51,0.00,,---,0.00,107.00,VWS V14.01,2013-04-07 14:05:00,
2013-04-07 10:10:00,61.6,43.8,29.82,WSW,248,11.0,24.0,52,0.00,,---,0.00,225.00,VWS V14.01,2013-04-07 14:10:00,
2013-04-07 10:15:00,61.9,44.1,29.82,SSW,202,9.0,24.0,52,0.00,,---,0.00,294.00,VWS V14.01,2013-04-07 14:15:00,
2013-04-07 10:20:00,62.4,44.0,29.82,SW,224,11.0,24.0,51,0.00,,---,0.00,178.00,VWS V14.01,2013-04-07 14:20:00,
2013-04-07 10:25:00,62.6,44.2,29.82,SW,229,14.0,24.0,51,0.00,,---,0.00,269.00,VWS V14.01,2013-04-07 14:25:00,
2013-04-07 10:30:00,62.9,44.5,29.82,SW,215,16.0,16.0,51,0.00,,---,0.00,631.00,VWS V14.01,2013-04-07 14:30:00,
2013-04-07 10:35:00,63.1,44.2,29.82,SW,236,7.0,20.0,50,0.00,,---,0.00,176.00,VWS V14.01,2013-04-07 14:35:00,
2013-04-07 10:41:00,63.1,44.2,29.82,WSW,244,21.0,24.0,50,0.00,,---,0.00,113.00,VWS V14.01,2013-04-07 14:41:00,
2013-04-07 10:46:00,62.9,44.5,29.82,SW,227,7.0,26.0,51,0.00,,---,0.00,107.00,VWS V14.01,2013-04-07 14:46:00,
2013-04-07 10:51:00,62.7,44.3,29.83,WSW,240,13.0,26.0,51,0.00,,---,0.00,104.00,VWS V14.01,2013-04-07 14:51:00,
2013-04-07 10:56:00,62.5,44.7,29.83,SW,227,17.0,26.0,52,0.00,,---,0.00,111.00,VWS V14.01,2013-04-07 14:56:00,
2013-04-07 11:00:00,62.4,44.6,29.83,SSW,203,10.0,26.0,52,0.00,,---,0.00,132.00,VWS V14.01,2013-04-07 15:00:00,
2013-04-07 11:01:00,62.3,44.5,29.83,WSW,238,9.0,12.0,52,0.00,,---,0.00,137.00,VWS V14.01,2013-04-07 15:01:00,
2013-04-07 11:06:00,62.1,45.3,29.83,WSW,250,11.0,22.0,54,0.00,,---,0.00,163.00,VWS V14.01,2013-04-07 15:06:00,
2013-04-07 11:11:00,62.0,44.7,29.83,SW,219,14.0,22.0,53,0.00,,---,0.00,181.00,VWS V14.01,2013-04-07 15:11:00,
2013-04-07 11:16:00,62.0,45.7,29.84,SW,222,5.0,22.0,55,0.00,,---,0.00,171.00,VWS V14.01,2013-04-07 15:16:00,
2013-04-07 11:21:00,62.0,45.2,29.83,WSW,239,11.0,22.0,54,0.00,,---,0.00,283.00,VWS V14.01,2013-04-07 15:21:00,
2013-04-07 11:26:00,62.2,45.4,29.84,SSW,213,9.0,22.0,54,0.00,,---,0.00,336.00,VWS V14.01,2013-04-07 15:26:00,
2013-04-07 11:30:00,62.7,45.8,29.83,SW,229,8.0,22.0,54,0.00,,---,0.00,364.00,VWS V14.01,2013-04-07 15:30:00,
2013-04-07 11:31:00,62.8,46.4,29.83,SSW,213,11.0,21.0,55,0.00,,---,0.00,378.00,VWS V14.01,2013-04-07 15:31:00,
2013-04-07 11:37:00,63.3,45.9,29.83,SW,230,16.0,24.0,53,0.00,,---,0.00,297.00,VWS V14.01,2013-04-07 15:37:00,
2013-04-07 11:42:00,63.9,46.5,29.83,SW,226,18.0,24.0,53,0.00,,---,0.00,891.00,VWS V14.01,2013-04-07 15:42:00,
2013-04-07 11:47:00,64.5,46.0,29.84,SW,226,23.0,24.0,51,0.00,,---,0.00,422.00,VWS V14.01,2013-04-07 15:47:00,
2013-04-07 11:52:00,64.6,46.6,29.83,WSW,252,14.0,24.0,52,0.00,,---,0.00,506.00,VWS V14.01,2013-04-07 15:52:00,
2013-04-07 11:57:00,64.7,46.2,29.83,SW,235,15.0,24.0,51,0.00,,---,0.00,399.00,VWS V14.01,2013-04-07 15:57:00,
2013-04-07 12:00:00,64.7,46.7,29.83,SW,228,15.0,24.0,52,0.00,,---,0.00,267.00,VWS V14.01,2013-04-07 16:00:00,
2013-04-07 12:02:00,64.7,46.2,29.83,WSW,243,18.0,22.0,51,0.00,,---,0.00,288.00,VWS V14.01,2013-04-07 16:02:00,
2013-04-07 12:07:00,64.6,47.1,29.83,WSW,241,13.0,22.0,53,0.00,,---,0.00,316.00,VWS V14.01,2013-04-07 16:07:00,
2013-04-07 12:12:00,64.6,46.6,29.83,SW,232,16.0,23.0,52,0.00,,---,0.00,383.00,VWS V14.01,2013-04-07 16:12:00,
2013-04-07 12:17:00,64.7,46.7,29.83,SSW,212,17.0,23.0,52,0.00,,---,0.00,316.00,VWS V14.01,2013-04-07 16:17:00,
2013-04-07 12:22:00,64.8,46.8,29.83,SW,215,15.0,25.0,52,0.00,,---,0.00,274.00,VWS V14.01,2013-04-07 16:22:00,
2013-04-07 12:27:00,65.0,47.0,29.83,SW,232,11.0,25.0,52,0.00,,---,0.00,424.00,VWS V14.01,2013-04-07 16:27:00,
2013-04-07 12:30:00,65.4,47.8,29.83,SW,232,18.0,25.0,53,0.00,,---,0.00,292.00,VWS V14.01,2013-04-07 16:30:00,
2013-04-07 12:32:00,65.6,47.0,29.83,WSW,238,15.0,24.0,51,0.00,,---,0.00,984.00,VWS V14.01,2013-04-07 16:32:00,
2013-04-07 12:37:00,66.3,48.2,29.83,SSW,213,11.0,24.0,52,0.00,,---,0.00,1027.00,VWS V14.01,2013-04-07 16:37:00,
2013-04-07 12:42:00,67.1,47.9,29.82,SW,217,18.0,25.0,50,0.00,,---,0.00,1011.00,VWS V14.01,2013-04-07 16:42:00,
2013-04-07 12:47:00,67.4,47.6,29.82,SW,234,9.0,26.0,49,0.00,,---,0.00,475.00,VWS V14.01,2013-04-07 16:47:00,
2013-04-07 12:52:00,67.4,48.1,29.82,SW,225,14.0,26.0,50,0.00,,---,0.00,689.00,VWS V14.01,2013-04-07 16:52:00,
2013-04-07 12:58:00,67.4,48.1,29.82,SW,227,8.0,27.0,50,0.00,,---,0.00,918.00,VWS V14.01,2013-04-07 16:58:00,
2013-04-07 13:00:00,67.5,48.2,29.82,SW,227,17.0,27.0,50,0.00,,---,0.00,918.00,VWS V14.01,2013-04-07 17:00:00,
2013-04-07 13:03:00,67.5,47.7,29.82,SSW,209,12.0,20.0,49,0.00,,---,0.00,589.00,VWS V14.01,2013-04-07 17:03:00,
2013-04-07 13:08:00,67.5,48.2,29.82,SW,223,11.0,26.0,50,0.00,,---,0.00,385.00,VWS V14.01,2013-04-07 17:08:00,
2013-04-07 13:13:00,67.7,48.4,29.82,SW,234,13.0,26.0,50,0.00,,---,0.00,907.00,VWS V14.01,2013-04-07 17:13:00,
2013-04-07 13:18:00,68.2,48.3,29.82,SW,224,18.0,26.0,49,0.00,,---,0.00,877.00,VWS V14.01,2013-04-07 17:18:00,
2013-04-07 13:23:00,68.4,49.1,29.82,SSW,211,19.0,26.0,50,0.00,,---,0.00,722.00,VWS V14.01,2013-04-07 17:23:00,
2013-04-07 13:28:00,68.6,48.7,29.82,SW,215,18.0,26.0,49,0.00,,---,0.00,427.00,VWS V14.01,2013-04-07 17:28:00,
2013-04-07 13:30:00,68.6,49.2,29.82,West,261,24.0,26.0,50,0.00,,---,0.00,737.00,VWS V14.01,2013-04-07 17:30:00,
2013-04-07 13:33:00,68.8,49.4,29.82,WSW,247,17.0,24.0,50,0.00,,---,0.00,900.00,VWS V14.01,2013-04-07 17:33:00,
2013-04-07 13:38:00,69.2,49.2,29.81,WSW,253,13.0,26.0,49,0.00,,---,0.00,958.00,VWS V14.01,2013-04-07 17:38:00,
2013-04-07 13:43:00,69.6,50.2,29.81,SW,236,14.0,26.0,50,0.00,,---,0.00,935.00,VWS V14.01,2013-04-07 17:43:00,
2013-04-07 13:48:00,70.1,49.5,29.81,SW,223,16.0,26.0,48,0.00,,---,0.00,974.00,VWS V14.01,2013-04-07 17:48:00,
2013-04-07 13:54:00,70.2,49.0,29.82,SW,222,24.0,26.0,47,0.00,,---,0.00,1055.00,VWS V14.01,2013-04-07 17:54:00,
2013-04-07 13:59:00,69.9,49.3,29.82,WSW,237,13.0,26.0,48,0.00,,---,0.00,988.00,VWS V14.01,2013-04-07 17:59:00,
2013-04-07 14:00:00,69.8,49.2,29.82,SW,226,17.0,26.0,48,0.00,,---,0.00,1002.00,VWS V14.01,2013-04-07 18:00:00,
2013-04-07 14:04:00,69.7,49.7,29.81,WSW,244,15.0,22.0,49,0.00,,---,0.00,318.00,VWS V14.01,2013-04-07 18:04:00,
2013-04-07 14:09:00,69.5,49.0,29.82,WSW,245,19.0,25.0,48,0.00,,---,0.00,297.00,VWS V14.01,2013-04-07 18:09:00,
2013-04-07 14:14:00,68.9,49.0,29.82,WSW,250,15.0,27.0,49,0.00,,---,0.00,288.00,VWS V14.01,2013-04-07 18:14:00,
2013-04-07 14:19:00,69.2,49.8,29.82,SSW,212,16.0,27.0,50,0.00,,---,0.00,981.00,VWS V14.01,2013-04-07 18:19:00,
2013-04-07 14:24:00,69.8,50.3,29.81,WSW,252,16.0,27.0,50,0.00,,---,0.00,972.00,VWS V14.01,2013-04-07 18:24:00,
2013-04-07 14:29:00,70.4,49.8,29.81,SW,227,13.0,27.0,48,0.00,,---,0.00,1002.00,VWS V14.01,2013-04-07 18:29:00,
2013-04-07 14:30:00,70.5,50.4,29.81,SSW,203,7.0,27.0,49,0.00,,---,0.00,1039.00,VWS V14.01,2013-04-07 18:30:00,
2013-04-07 14:34:00,70.8,50.2,29.81,SW,224,19.0,23.0,48,0.00,,---,0.00,1018.00,VWS V14.01,2013-04-07 18:34:00,
2013-04-07 14:39:00,70.9,50.2,29.82,SW,235,13.0,23.0,48,0.00,,---,0.00,1034.00,VWS V14.01,2013-04-07 18:39:00,
2013-04-07 14:44:00,70.6,49.4,29.82,WSW,253,17.0,25.0,47,0.00,,---,0.00,445.00,VWS V14.01,2013-04-07 18:44:00,
2013-04-07 14:50:00,70.5,49.3,29.82,SW,227,13.0,27.0,47,0.00,,---,0.00,388.00,VWS V14.01,2013-04-07 18:50:00,
2013-04-07 14:55:00,70.7,48.9,29.81,WSW,242,14.0,27.0,46,0.00,,---,0.00,510.00,VWS V14.01,2013-04-07 18:55:00,
2013-04-07 15:00:00,70.7,50.1,29.82,WSW,247,17.0,30.0,48,0.00,,---,0.00,1028.00,VWS V14.01,2013-04-07 19:00:00,
2013-04-07 15:05:00,70.8,49.6,29.81,SW,232,12.0,18.0,47,0.00,,---,0.00,381.00,VWS V14.01,2013-04-07 19:05:00,
2013-04-07 15:10:00,70.5,49.3,29.82,WSW,238,10.0,23.0,47,0.00,,---,0.00,355.00,VWS V14.01,2013-04-07 19:10:00,
2013-04-07 15:15:00,70.2,49.0,29.82,WSW,244,14.0,23.0,47,0.00,,---,0.00,320.00,VWS V14.01,2013-04-07 19:15:00,
2013-04-07 15:20:00,70.4,49.2,29.81,SW,234,14.0,25.0,47,0.00,,---,0.00,856.00,VWS V14.01,2013-04-07 19:20:00,
2013-04-07 15:25:00,71.0,48.0,29.82,WSW,257,16.0,25.0,44,0.00,,---,0.00,932.00,VWS V14.01,2013-04-07 19:25:00,
2013-04-07 15:30:00,71.0,48.0,29.82,WSW,252,18.0,25.0,44,0.00,,---,0.00,339.00,VWS V14.01,2013-04-07 19:30:00,
2013-04-07 15:35:00,70.8,50.2,29.82,WSW,239,19.0,22.0,48,0.00,,---,0.00,990.00,VWS V14.01,2013-04-07 19:35:00,
2013-04-07 15:40:00,71.2,49.4,29.82,WSW,242,10.0,22.0,46,0.00,,---,0.00,998.00,VWS V14.01,2013-04-07 19:40:00,
2013-04-07 15:45:00,71.2,49.4,29.82,WSW,252,13.0,22.0,46,0.00,,---,0.00,258.00,VWS V14.01,2013-04-07 19:45:00,
2013-04-07 15:50:00,70.6,48.8,29.81,SW,223,11.0,22.0,46,0.00,,---,0.00,274.00,VWS V14.01,2013-04-07 19:50:00,
2013-04-07 15:55:00,70.4,48.1,29.82,SW,232,11.0,22.0,45,0.00,,---,0.00,276.00,VWS V14.01,2013-04-07 19:55:00,
2013-04-07 16:00:00,70.4,48.7,29.82,SW,226,16.0,22.0,46,0.00,,---,0.00,285.00,VWS V14.01,2013-04-07 20:00:00,
2013-04-07 16:05:00,70.1,49.0,29.82,WSW,254,15.0,21.0,47,0.00,,---,0.00,253.00,VWS V14.01,2013-04-07 20:05:00,
2013-04-07 16:10:00,69.9,48.8,29.82,WSW,239,6.0,21.0,47,0.00,,---,0.00,276.00,VWS V14.01,2013-04-07 20:10:00,
2013-04-07 16:15:00,69.9,48.2,29.82,WSW,242,11.0,25.0,46,0.00,,---,0.00,415.00,VWS V14.01,2013-04-07 20:15:00,
2013-04-07 16:20:00,70.7,48.3,29.82,WSW,253,14.0,25.0,45,0.00,,---,0.00,758.00,VWS V14.01,2013-04-07 20:20:00,
2013-04-07 16:25:00,71.3,48.9,29.82,WSW,242,9.0,25.0,45,0.00,,---,0.00,758.00,VWS V14.01,2013-04-07 20:25:00,
2013-04-07 16:30:00,71.1,48.1,29.82,WSW,240,12.0,17.0,44,0.00,,---,0.00,264.00,VWS V14.01,2013-04-07 20:30:00,
2013-04-07 16:36:00,71.3,48.9,29.82,SW,227,9.0,21.0,45,0.00,,---,0.00,218.00,VWS V14.01,2013-04-07 20:36:00,
2013-04-07 16:41:00,71.2,48.8,29.82,West,261,17.0,24.0,45,0.00,,---,0.00,545.00,VWS V14.01,2013-04-07 20:41:00,
2013-04-07 16:46:00,71.0,48.6,29.82,WSW,248,18.0,24.0,45,0.00,,---,0.00,239.00,VWS V14.01,2013-04-07 20:46:00,
2013-04-07 16:51:00,70.6,47.7,29.83,SW,234,12.0,24.0,44,0.00,,---,0.00,274.00,VWS V14.01,2013-04-07 20:51:00,
2013-04-07 16:56:00,70.5,48.2,29.83,WSW,244,16.0,24.0,45,0.00,,---,0.00,431.00,VWS V14.01,2013-04-07 20:56:00,
2013-04-07 17:00:00,70.8,48.4,29.83,SW,223,10.0,24.0,45,0.00,,---,0.00,671.00,VWS V14.01,2013-04-07 21:00:00,
2013-04-07 17:01:00,70.8,49.0,29.83,SW,233,16.0,16.0,46,0.00,,---,0.00,671.00,VWS V14.01,2013-04-07 21:01:00,
2013-04-07 17:06:00,71.4,49.0,29.83,WSW,249,6.0,20.0,45,0.00,,---,0.00,501.00,VWS V14.01,2013-04-07 21:06:00,
2013-04-07 17:11:00,71.6,47.9,29.83,SW,236,9.0,22.0,43,0.00,,---,0.00,584.00,VWS V14.01,2013-04-07 21:11:00,
2013-04-07 17:16:00,71.3,48.3,29.83,SW,228,13.0,23.0,44,0.00,,---,0.00,139.00,VWS V14.01,2013-04-07 21:16:00,
2013-04-07 17:21:00,70.6,47.7,29.83,WSW,252,9.0,23.0,44,0.00,,---,0.00,132.00,VWS V14.01,2013-04-07 21:21:00,
2013-04-07 17:26:00,70.1,47.8,29.83,SW,236,14.0,23.0,45,0.00,,---,0.00,186.00,VWS V14.01,2013-04-07 21:26:00,
2013-04-07 17:30:00,70.0,48.3,29.83,West,261,16.0,23.0,46,0.00,,---,0.00,206.00,VWS V14.01,2013-04-07 21:30:00,
2013-04-07 17:31:00,69.9,48.2,29.83,SW,234,11.0,19.0,46,0.00,,---,0.00,197.00,VWS V14.01,2013-04-07 21:31:00,
2013-04-07 17:36:00,70.1,49.0,29.83,WSW,248,18.0,19.0,47,0.00,,---,0.00,346.00,VWS V14.01,2013-04-07 21:36:00,
2013-04-07 17:41:00,70.5,48.8,29.83,SW,225,16.0,21.0,46,0.00,,---,0.00,469.00,VWS V14.01,2013-04-07 21:41:00,
2013-04-07 17:47:00,70.8,49.0,29.83,WSW,252,15.0,23.0,46,0.00,,---,0.00,369.00,VWS V14.01,2013-04-07 21:47:00,
2013-04-07 17:52:00,70.9,48.5,29.84,SW,229,11.0,23.0,45,0.00,,---,0.00,179.00,VWS V14.01,2013-04-07 21:52:00,
2013-04-07 17:57:00,70.8,48.4,29.84,WSW,244,9.0,23.0,45,0.00,,---,0.00,160.00,VWS V14.01,2013-04-07 21:57:00,
2013-04-07 18:00:00,70.6,48.8,29.84,WSW,248,11.0,23.0,46,0.00,,---,0.00,248.00,VWS V14.01,2013-04-07 22:00:00,
2013-04-07 18:02:00,70.5,48.8,29.84,SW,236,16.0,16.0,46,0.00,,---,0.00,336.00,VWS V14.01,2013-04-07 22:02:00,
2013-04-07 18:07:00,70.6,48.8,29.84,WSW,252,13.0,16.0,46,0.00,,---,0.00,299.00,VWS V14.01,2013-04-07 22:07:00,
2013-04-07 18:12:00,70.6,48.8,29.84,WSW,249,10.0,17.0,46,0.00,,---,0.00,302.00,VWS V14.01,2013-04-07 22:12:00,
2013-04-07 18:17:00,70.6,49.4,29.84,SSW,206,11.0,17.0,47,0.00,,---,0.00,288.00,VWS V14.01,2013-04-07 22:17:00,
2013-04-07 18:22:00,70.5,48.8,29.84,SW,222,11.0,19.0,46,0.00,,---,0.00,121.00,VWS V14.01,2013-04-07 22:22:00,
2013-04-07 18:27:00,70.2,49.0,29.84,SW,216,7.0,19.0,47,0.00,,---,0.00,211.00,VWS V14.01,2013-04-07 22:27:00,
2013-04-07 18:30:00,70.1,49.5,29.84,WSW,242,6.0,19.0,48,0.00,,---,0.00,111.00,VWS V14.01,2013-04-07 22:30:00,
2013-04-07 18:32:00,70.0,48.9,29.84,SW,228,6.0,16.0,47,0.00,,---,0.00,213.00,VWS V14.01,2013-04-07 22:32:00,
2013-04-07 18:37:00,69.9,48.8,29.85,SW,227,6.0,18.0,47,0.00,,---,0.00,213.00,VWS V14.01,2013-04-07 22:37:00,
2013-04-07 18:42:00,69.9,49.3,29.85,SW,230,12.0,18.0,48,0.00,,---,0.00,213.00,VWS V14.01,2013-04-07 22:42:00,
2013-04-07 18:47:00,69.9,49.9,29.85,SW,235,4.0,18.0,49,0.00,,---,0.00,160.00,VWS V14.01,2013-04-07 22:47:00,
2013-04-07 18:52:00,69.7,49.7,29.85,SW,225,9.0,18.0,49,0.00,,---,0.00,65.00,VWS V14.01,2013-04-07 22:52:00,
2013-04-07 18:57:00,69.3,49.9,29.85,SW,216,10.0,18.0,50,0.00,,---,0.00,53.00,VWS V14.01,2013-04-07 22:57:00,
2013-04-07 19:00:00,69.0,49.6,29.85,SSW,209,7.0,18.0,50,0.00,,---,0.00,47.00,VWS V14.01,2013-04-07 23:00:00,
2013-04-07 19:02:00,68.9,49.5,29.85,WSW,240,10.0,12.0,50,0.00,,---,0.00,40.00,VWS V14.01,2013-04-07 23:02:00,
2013-04-07 19:07:00,68.5,49.7,29.85,SW,214,7.0,14.0,51,0.00,,---,0.00,35.00,VWS V14.01,2013-04-07 23:07:00,
2013-04-07 19:12:00,68.1,49.3,29.85,WSW,240,6.0,14.0,51,0.00,,---,0.00,37.00,VWS V14.01,2013-04-07 23:12:00,
2013-04-07 19:17:00,67.9,49.7,29.85,SW,231,4.0,14.0,52,0.00,,---,0.00,37.00,VWS V14.01,2013-04-07 23:17:00,
2013-04-07 19:22:00,67.6,49.4,29.85,SW,233,4.0,14.0,52,0.00,,---,0.00,30.00,VWS V14.01,2013-04-07 23:22:00,
2013-04-07 19:28:00,67.4,49.7,29.85,SW,234,3.0,14.0,53,0.00,,---,0.00,26.00,VWS V14.01,2013-04-07 23:28:00,
2013-04-07 19:30:00,67.3,49.6,29.85,SW,222,4.0,14.0,53,0.00,,---,0.00,26.00,VWS V14.01,2013-04-07 23:30:00,
2013-04-07 19:33:00,67.2,50.0,29.85,SW,225,2.0,5.0,54,0.00,,---,0.00,33.00,VWS V14.01,2013-04-07 23:33:00,
2013-04-07 19:38:00,67.0,49.8,29.85,SSW,209,3.0,10.0,54,0.00,,---,0.00,35.00,VWS V14.01,2013-04-07 23:38:00,
2013-04-07 19:43:00,66.8,49.6,29.86,SW,231,4.0,10.0,54,0.00,,---,0.00,23.00,VWS V14.01,2013-04-07 23:43:00,
2013-04-07 19:48:00,66.7,49.5,29.85,SW,232,2.0,10.0,54,0.00,,---,0.00,14.00,VWS V14.01,2013-04-07 23:48:00,
2013-04-07 19:53:00,66.5,49.4,29.85,WSW,237,2.0,10.0,54,0.00,,---,0.00,9.00,VWS V14.01,2013-04-07 23:53:00,
2013-04-07 19:58:00,66.3,49.7,29.86,West,263,1.0,10.0,55,0.00,,---,0.00,5.00,VWS V14.01,2013-04-07 23:58:00,
2013-04-07 20:00:00,66.1,49.5,29.86,West,263,1.0,10.0,55,0.00,,---,0.00,0.00,VWS V14.01,2013-04-08 00:00:00,
2013-04-07 20:03:00,66.0,49.4,29.86,WSW,250,0.0,3.0,55,0.00,,---,0.00,0.00,VWS V14.01,2013-04-08 00:03:00,
2013-04-07 20:08:00,65.8,49.2,29.86,WSW,240,4.0,4.0,55,0.00,,---,0.00,0.00,VWS V14.01,2013-04-08 00:08:00,
2013-04-07 20:13:00,65.5,49.4,29.86,WSW,240,1.0,4.0,56,0.00,,---,0.00,0.00,VWS V14.01,2013-04-08 00:13:00,
2013-04-07 20:18:00,65.2,49.1,29.87,SW,232,0.0,4.0,56,0.00,,---,0.00,0.00,VWS V14.01,2013-04-08 00:18:00,
2013-04-07 20:23:00,65.0,49.4,29.87,SW,232,0.0,4.0,57,0.00,,---,0.00,0.00,VWS V14.01,2013-04-08 00:23:00,
2013-04-07 20:28:00,64.5,49.0,29.87,NW,311,0.0,4.0,57,0.00,,---,0.00,0.00,VWS V14.01,2013-04-08 00:28:00,
2013-04-07 20:30:00,64.2,49.1,29.87,NW,311,0.0,4.0,58,0.00,,---,0.00,0.00,VWS V14.01,2013-04-08 00:30:00,
2013-04-07 20:33:00,64.1,49.0,29.87,WSW,247,3.0,6.0,58,0.00,,---,0.00,0.00,VWS V14.01,2013-04-08 00:33:00,
2013-04-07 20:38:00,63.6,49.0,29.87,West,263,0.0,7.0,59,0.00,,---,0.00,0.00,VWS V14.01,2013-04-08 00:38:00,
2013-04-07 20:43:00,63.4,48.8,29.88,West,263,0.0,7.0,59,0.00,,---,0.00,0.00,VWS V14.01,2013-04-08 00:43:00,
2013-04-07 20:48:00,63.1,49.0,29.88,West,263,1.0,7.0,60,0.00,,---,0.00,0.00,VWS V14.01,2013-04-08 00:48:00,
2013-04-07 20:53:00,63.0,49.4,29.88,West,263,0.0,7.0,61,0.00,,---,0.00,0.00,VWS V14.01,2013-04-08 00:53:00,
2013-04-07 20:58:00,62.9,49.3,29.88,West,263,0.0,7.0,61,0.00,,---,0.00,0.00,VWS V14.01,2013-04-08 00:58:00,
2013-04-07 21:00:00,62.9,49.3,29.88,West,263,0.0,7.0,61,0.00,,---,0.00,0.00,VWS V14.01,2013-04-08 01:00:00,
2013-04-07 21:03:00,62.9,49.3,29.88,West,263,0.0,1.0,61,0.00,,---,0.00,0.00,VWS V14.01,2013-04-08 01:03:00,
2013-04-07 21:08:00,62.8,49.2,29.88,West,263,0.0,1.0,61,0.00,,---,0.00,0.00,VWS V14.01,2013-04-08 01:08:00,
2013-04-07 21:13:00,62.7,49.1,29.89,West,263,0.0,1.0,61,0.00,,---,0.00,0.00,VWS V14.01,2013-04-08 01:13:00,
2013-04-07 21:18:00,62.5,48.9,29.89,West,263,0.0,1.0,61,0.00,,---,0.00,0.00,VWS V14.01,2013-04-08 01:18:00,
2013-04-07 21:23:00,62.0,48.8,29.89,West,263,0.0,1.0,62,0.00,,---,0.00,0.00,VWS V14.01,2013-04-08 01:23:00,
2013-04-07 21:28:00,61.6,48.5,29.89,West,263,0.0,1.0,62,0.00,,---,0.00,0.00,VWS V14.01,2013-04-08 01:28:00,
2013-04-07 21:30:00,61.4,48.3,29.89,West,263,0.0,1.0,62,0.00,,---,0.00,0.00,VWS V14.01,2013-04-08 01:30:00,
2013-04-07 21:33:00,61.3,48.2,29.89,West,263,0.0,1.0,62,0.00,,---,0.00,0.00,VWS V14.01,2013-04-08 01:33:00,
2013-04-07 21:38:00,60.9,46.5,29.89,West,265,1.0,2.0,59,0.00,,---,0.00,0.00,VWS V14.01,2013-04-08 01:38:00,
2013-04-07 21:43:00,60.8,46.0,29.90,West,265,0.0,2.0,58,0.00,,---,0.00,0.00,VWS V14.01,2013-04-08 01:43:00,
2013-04-07 21:48:00,60.7,44.9,29.90,West,265,0.0,2.0,56,0.00,,---,0.00,0.00,VWS V14.01,2013-04-08 01:48:00,
2013-04-07 21:53:00,60.6,44.8,29.90,West,265,0.0,2.0,56,0.00,,---,0.00,0.00,VWS V14.01,2013-04-08 01:53:00,
2013-04-07 21:58:00,60.5,44.3,29.90,West,265,0.0,2.0,55,0.00,,---,0.00,0.00,VWS V14.01,2013-04-08 01:58:00,
2013-04-07 22:00:00,60.4,43.7,29.90,West,265,0.0,2.0,54,0.00,,---,0.00,0.00,VWS V14.01,2013-04-08 02:00:00,
2013-04-07 22:03:00,60.4,43.7,29.90,West,265,0.0,0.0,54,0.00,,---,0.00,0.00,VWS V14.01,2013-04-08 02:03:00,
2013-04-07 22:08:00,60.3,43.1,29.90,West,265,0.0,0.0,53,0.00,,---,0.00,0.00,VWS V14.01,2013-04-08 02:08:00,
2013-04-07 22:13:00,60.3,43.1,29.91,West,265,0.0,0.0,53,0.00,,---,0.00,0.00,VWS V14.01,2013-04-08 02:13:00,
2013-04-07 22:18:00,60.2,43.0,29.91,West,265,0.0,0.0,53,0.00,,---,0.00,0.00,VWS V14.01,2013-04-08 02:18:00,
2013-04-07 22:23:00,60.0,42.8,29.90,West,265,0.0,1.0,53,0.00,,---,0.00,0.00,VWS V14.01,2013-04-08 02:23:00,
2013-04-07 22:28:00,59.8,42.2,29.90,West,265,0.0,1.0,52,0.00,,---,0.00,0.00,VWS V14.01,2013-04-08 02:28:00,
2013-04-07 22:30:00,59.7,42.6,29.90,West,265,0.0,1.0,53,0.00,,---,0.00,0.00,VWS V14.01,2013-04-08 02:30:00,
2013-04-07 22:33:00,59.6,42.5,29.90,West,265,0.0,1.0,53,0.00,,---,0.00,0.00,VWS V14.01,2013-04-08 02:33:00,
2013-04-07 22:38:00,59.5,42.4,29.90,West,265,0.0,1.0,53,0.00,,---,0.00,0.00,VWS V14.01,2013-04-08 02:38:00,
2013-04-07 22:43:00,59.3,42.2,29.91,West,265,0.0,1.0,53,0.00,,---,0.00,0.00,VWS V14.01,2013-04-08 02:43:00,
2013-04-07 22:49:00,59.2,41.1,29.91,West,265,0.0,1.0,51,0.00,,---,0.00,0.00,VWS V14.01,2013-04-08 02:49:00,
2013-04-07 22:54:00,59.1,41.0,29.91,West,265,0.0,1.0,51,0.00,,---,0.00,0.00,VWS V14.01,2013-04-08 02:54:00,
2013-04-07 22:59:00,59.1,42.5,29.91,West,265,0.0,1.0,54,0.00,,---,0.00,0.00,VWS V14.01,2013-04-08 02:59:00,
2013-04-07 23:00:00,59.1,43.0,29.91,West,265,0.0,1.0,55,0.00,,---,0.00,0.00,VWS V14.01,2013-04-08 03:00:00,
2013-04-07 23:04:00,59.1,43.0,29.91,West,265,0.0,0.0,55,0.00,,---,0.00,0.00,VWS V14.01,2013-04-08 03:04:00,
2013-04-07 23:09:00,58.9,42.3,29.91,West,264,0.0,0.0,54,0.00,,---,0.00,0.00,VWS V14.01,2013-04-08 03:09:00,
2013-04-07 23:14:00,58.6,42.5,29.91,West,265,0.0,0.0,55,0.00,,---,0.00,0.00,VWS V14.01,2013-04-08 03:14:00,
2013-04-07 23:20:00,58.4,42.8,29.91,West,265,0.0,0.0,56,0.00,,---,0.00,0.00,VWS V14.01,2013-04-08 03:20:00,
2013-04-07 23:25:00,58.1,42.5,29.91,West,265,0.0,0.0,56,0.00,,---,0.00,0.00,VWS V14.01,2013-04-08 03:25:00,
2013-04-07 23:30:00,57.8,42.7,29.91,West,265,0.0,0.0,57,0.00,,---,0.00,0.00,VWS V14.01,2013-04-08 03:30:00,
2013-04-07 23:35:00,57.5,42.4,29.91,West,265,0.0,0.0,57,0.00,,---,0.00,0.00,VWS V14.01,2013-04-08 03:35:00,
2013-04-07 23:40:00,57.2,42.1,29.91,West,265,0.0,1.0,57,0.00,,---,0.00,0.00,VWS V14.01,2013-04-08 03:40:00,
2013-04-07 23:45:00,57.1,41.1,29.91,West,264,0.0,1.0,55,0.00,,---,0.00,0.00,VWS V14.01,2013-04-08 03:45:00,
2013-04-07 23:50:00,57.1,42.9,29.91,West,264,0.0,1.0,59,0.00,,---,0.00,0.00,VWS V14.01,2013-04-08 03:50:00,
2013-04-07 23:55:00,57.0,44.1,29.91,West,264,0.0,1.0,62,0.00,,---,0.00,0.00,VWS V14.01,2013-04-08 03:55:00,